Time;durP1;ratioP1;P1;durP2;ratioP2;P2;SDS_P1;SDS_P2;PMS_P1;PMS_P2;Temp;Humidity;BMP_temperature;BMP_pressure;BME280_temperature;BME280_humidity;BME280_pressure;Samples;Min_cycle;Max_cycle;Signal;HPM_P1;HPM_P2
2021/12/25 00:01:09;;;;;;;5.28;2.05;;;0.50;99.90;;;;;;4971369;28;20546;-78
2021/12/25 00:03:36;;;;;;;10.68;2.25;;;0.50;99.90;;;;;;4971708;28;20051;-78
2021/12/25 00:06:02;;;;;;;6.55;2.17;;;0.50;99.90;;;;;;4971218;28;20042;-78
2021/12/25 00:08:29;;;;;;;4.15;1.95;;;0.50;99.90;;;;;;4971320;28;20416;-78
2021/12/25 00:10:59;;;;;;;6.20;2.00;;;0.50;99.90;;;;;;4972589;28;20051;-78
2021/12/25 00:13:25;;;;;;;7.20;2.30;;;0.50;99.90;;;;;;4971305;28;20053;-78
2021/12/25 00:15:52;;;;;;;10.48;1.95;;;0.50;99.90;;;;;;4972332;28;20054;-78
2021/12/25 00:18:19;;;;;;;2.83;1.73;;;0.50;99.90;;;;;;4971237;28;20459;-78
2021/12/25 00:20:46;;;;;;;5.32;1.85;;;0.50;99.90;;;;;;4971191;28;20415;-78
2021/12/25 00:23:12;;;;;;;6.40;2.28;;;0.40;99.90;;;;;;4972238;28;20042;-78
2021/12/25 00:25:46;;;;;;;7.22;2.15;;;0.40;99.90;;;;;;4974608;28;20109;-78
2021/12/25 00:28:35;;;;;;;4.57;1.55;;;0.40;99.90;;;;;;4975021;28;20062;-78
2021/12/25 00:33:49;;;;;;;3.60;1.75;;;0.40;99.90;;;;;;4976351;28;20059;-79
2021/12/25 00:36:18;;;;;;;4.47;1.58;;;0.40;99.90;;;;;;4976223;28;20561;-79
2021/12/25 00:38:45;;;;;;;3.55;1.77;;;0.40;99.90;;;;;;4960029;28;20116;-79
2021/12/25 00:41:13;;;;;;;4.57;2.10;;;0.30;99.90;;;;;;4976703;28;20406;-79
2021/12/25 00:43:39;;;;;;;4.32;2.45;;;0.30;99.90;;;;;;4978507;28;20069;-79
2021/12/25 00:46:04;;;;;;;8.57;2.00;;;0.30;99.90;;;;;;4976944;28;20050;-79
2021/12/25 00:48:30;;;;;;;11.18;3.17;;;0.30;99.90;;;;;;4976035;28;20133;-79
2021/12/25 00:50:56;;;;;;;7.95;1.75;;;0.20;99.90;;;;;;4975926;28;20496;-79
2021/12/25 00:53:22;;;;;;;3.95;1.73;;;0.20;99.90;;;;;;4976046;28;20038;-79
2021/12/25 00:55:48;;;;;;;2.55;1.10;;;0.20;99.90;;;;;;4976422;28;20051;-79
2021/12/25 00:58:13;;;;;;;6.25;2.05;;;0.10;99.90;;;;;;4975876;28;20089;-79
2021/12/25 01:00:39;;;;;;;2.50;1.83;;;0.20;99.90;;;;;;4960079;28;20069;-79
2021/12/25 01:03:05;;;;;;;5.30;1.63;;;0.20;99.90;;;;;;4959756;28;20042;-79
2021/12/25 01:05:31;;;;;;;5.15;1.60;;;0.10;99.90;;;;;;4958854;28;20439;-79
2021/12/25 01:07:57;;;;;;;3.05;1.63;;;0.10;99.90;;;;;;4975157;28;20112;-79
2021/12/25 01:10:22;;;;;;;2.45;1.38;;;0.00;99.90;;;;;;4974225;28;20514;-78
2021/12/25 01:15:20;;;;;;;5.68;1.23;;;0.00;99.90;;;;;;4973863;28;20784;-78
2021/12/25 01:18:10;;;;;;;4.07;1.70;;;-0.10;99.90;;;;;;4974236;28;20047;-78
2021/12/25 01:26:32;;;;;;;5.72;1.65;;;-0.20;99.90;;;;;;4973494;28;20054;-78
2021/12/25 01:31:53;;;;;;;2.75;1.00;;;-0.30;99.90;;;;;;4973783;28;20089;-78
2021/12/25 01:49:24;;;;;;;6.68;1.27;;;-0.50;99.90;;;;;;4973826;28;20055;-79
2021/12/25 01:51:50;;;;;;;3.70;1.17;;;-0.50;99.90;;;;;;4957491;28;20048;-79
2021/12/25 01:54:16;;;;;;;1.52;0.98;;;-0.50;99.90;;;;;;4973521;28;20078;-79
2021/12/25 01:56:41;;;;;;;2.10;0.68;;;-0.60;99.90;;;;;;4973126;28;20039;-79
2021/12/25 01:59:07;;;;;;;1.17;0.73;;;-0.70;99.90;;;;;;4957397;28;20047;-79
2021/12/25 02:01:33;;;;;;;7.72;0.95;;;-0.70;99.90;;;;;;4973177;28;20043;-79
2021/12/25 02:03:58;;;;;;;9.90;0.77;;;-0.80;99.90;;;;;;4973545;28;20030;-79
2021/12/25 02:06:24;;;;;;;2.40;0.70;;;-0.90;99.90;;;;;;4972890;28;20058;-79
2021/12/25 02:08:49;;;;;;;7.45;0.75;;;-0.90;99.90;;;;;;4973184;28;20043;-79
2021/12/25 02:11:15;;;;;;;2.70;0.65;;;-0.90;99.90;;;;;;4973302;28;20043;-79
2021/12/25 02:13:42;;;;;;;1.35;0.90;;;-1.00;99.90;;;;;;4973451;28;20054;-79
2021/12/25 02:16:13;;;;;;;1.27;0.40;;;-1.00;99.90;;;;;;4972736;28;20519;-79
2021/12/25 02:19:03;;;;;;;2.10;0.50;;;-1.10;99.90;;;;;;4973130;28;20423;-79
2021/12/25 02:21:36;;;;;;;4.50;1.05;;;-1.10;99.90;;;;;;4972997;28;20061;-79
2021/12/25 02:24:04;;;;;;;5.50;0.80;;;-1.10;99.90;;;;;;4972765;28;20047;-79
2021/12/25 02:26:30;;;;;;;1.70;1.00;;;-1.20;99.90;;;;;;4972430;28;20073;-79
2021/12/25 02:28:56;;;;;;;1.25;0.93;;;-1.20;99.90;;;;;;4972651;28;20074;-79
2021/12/25 02:31:22;;;;;;;2.30;0.88;;;-1.20;99.90;;;;;;4956590;28;20035;-79
2021/12/25 02:33:47;;;;;;;2.10;0.80;;;-1.20;99.90;;;;;;4972593;28;20085;-79
2021/12/25 02:36:16;;;;;;;6.47;0.90;;;-1.20;99.90;;;;;;4972239;28;20108;-79
2021/12/25 02:38:43;;;;;;;1.67;0.93;;;-1.30;99.90;;;;;;4972394;28;20042;-79
2021/12/25 02:41:10;;;;;;;1.77;0.63;;;-1.30;99.90;;;;;;4956221;28;20035;-79
2021/12/25 02:43:37;;;;;;;3.80;1.00;;;-1.30;99.90;;;;;;4956250;28;20046;-79
2021/12/25 02:46:04;;;;;;;1.20;0.70;;;-1.40;99.90;;;;;;4971964;28;20034;-79
2021/12/25 02:48:31;;;;;;;2.25;0.80;;;-1.40;99.90;;;;;;4955793;28;20094;-79
2021/12/25 02:50:58;;;;;;;1.00;0.65;;;-1.40;99.90;;;;;;4972173;28;20049;-79
2021/12/25 02:53:23;;;;;;;2.17;0.90;;;-1.50;99.90;;;;;;4972202;28;20074;-79
2021/12/25 02:55:49;;;;;;;2.15;0.80;;;-1.50;99.90;;;;;;4955796;28;20133;-79
2021/12/25 02:58:19;;;;;;;3.22;1.23;;;-1.50;99.90;;;;;;4972536;28;20396;-79
2021/12/25 03:00:52;;;;;;;4.07;1.17;;;-1.50;99.90;;;;;;4975100;28;20038;-79
2021/12/25 03:03:18;;;;;;;1.52;0.50;;;-1.60;99.90;;;;;;4973240;28;20046;-79
2021/12/25 03:05:44;;;;;;;0.73;0.32;;;-1.60;99.90;;;;;;4972862;28;20054;-79
2021/12/25 03:08:11;;;;;;;1.77;1.38;;;-1.60;99.90;;;;;;4973457;28;20042;-79
2021/12/25 03:10:39;;;;;;;0.40;0.32;;;-1.60;99.90;;;;;;4973082;28;20078;-79
2021/12/25 03:15:46;;;;;;;2.28;0.95;;;-1.60;99.90;;;;;;4972576;28;20062;-79
2021/12/25 03:18:16;;;;;;;1.80;0.80;;;-1.70;99.90;;;;;;4972466;28;20566;-79
2021/12/25 03:20:45;;;;;;;1.08;0.80;;;-1.70;99.90;;;;;;4956477;28;20114;-79
2021/12/25 03:23:20;;;;;;;1.02;0.80;;;-1.80;99.90;;;;;;4972747;28;20070;-79
2021/12/25 03:25:48;;;;;;;1.23;0.40;;;-1.80;99.90;;;;;;4956360;28;20047;-79
2021/12/25 03:28:16;;;;;;;1.90;0.60;;;-1.80;99.90;;;;;;4972429;28;20399;-79
2021/12/25 03:30:43;;;;;;;2.05;0.77;;;-1.90;99.90;;;;;;4972292;28;20126;-79
2021/12/25 03:33:14;;;;;;;1.95;0.95;;;-1.90;99.90;;;;;;4972416;28;20094;-79
2021/12/25 03:35:41;;;;;;;1.23;0.57;;;-1.90;99.90;;;;;;4972497;28;20105;-79
2021/12/25 03:38:10;;;;;;;3.58;0.70;;;-2.00;99.90;;;;;;4972201;28;20491;-79
2021/12/25 03:40:35;;;;;;;1.23;0.70;;;-2.00;99.90;;;;;;4972262;28;20050;-79
2021/12/25 03:43:02;;;;;;;0.88;0.65;;;-2.10;99.90;;;;;;4972217;28;20038;-79
2021/12/25 03:45:30;;;;;;;5.40;1.33;;;-2.10;99.90;;;;;;4972497;28;20062;-79
2021/12/25 03:48:12;;;;;;;1.02;0.40;;;-2.10;99.90;;;;;;4973685;28;20078;-79
2021/12/25 03:58:50;;;;;;;2.45;0.65;;;-2.20;99.90;;;;;;4973457;28;20053;-78
2021/12/25 04:04:06;;;;;;;1.20;0.60;;;-2.30;99.90;;;;;;4975572;28;20098;-78
2021/12/25 04:06:32;;;;;;;0.65;0.50;;;-2.30;99.90;;;;;;4975050;28;20046;-78
2021/12/25 04:08:59;;;;;;;0.30;0.30;;;-2.40;99.90;;;;;;4959103;28;20488;-78
2021/12/25 04:11:28;;;;;;;0.77;0.50;;;-2.40;99.90;;;;;;4959020;28;20042;-78
2021/12/25 04:13:54;;;;;;;1.63;0.57;;;-2.40;99.90;;;;;;4975175;28;20492;-78
2021/12/25 04:16:20;;;;;;;0.68;0.32;;;-2.40;99.90;;;;;;4974699;28;20046;-78
2021/12/25 04:18:46;;;;;;;1.02;0.40;;;-2.50;99.90;;;;;;4959003;28;20411;-78
2021/12/25 04:21:11;;;;;;;1.48;0.32;;;-2.50;99.90;;;;;;4976203;28;20043;-78
2021/12/25 04:23:40;;;;;;;0.95;0.95;;;-2.50;99.90;;;;;;4976301;28;20042;-78
2021/12/25 04:26:06;;;;;;;0.25;0.25;;;-2.60;99.90;;;;;;4976019;28;20038;-78
2021/12/25 04:28:41;;;;;;;0.20;0.20;;;-2.60;99.90;;;;;;4974952;28;20058;-78
2021/12/25 05:06:04;;;;;;;1.00;0.65;;;-2.90;99.90;;;;;;4975025;28;20050;-80
2021/12/25 05:08:30;;;;;;;0.47;0.40;;;-3.00;99.90;;;;;;4958482;28;20572;-79
2021/12/25 05:10:57;;;;;;;2.40;0.40;;;-2.90;99.90;;;;;;4973420;28;20057;-79
2021/12/25 05:13:22;;;;;;;1.13;0.50;;;-3.00;99.90;;;;;;4974598;28;20429;-79
2021/12/25 05:15:48;;;;;;;1.05;0.50;;;-2.90;99.90;;;;;;4973991;28;20043;-79
2021/12/25 05:18:14;;;;;;;0.52;0.50;;;-3.00;99.90;;;;;;4957966;28;20503;-79
2021/12/25 05:20:39;;;;;;;0.57;0.30;;;-3.10;99.90;;;;;;4958885;28;20047;-79
2021/12/25 05:23:05;;;;;;;0.90;0.35;;;-3.00;99.90;;;;;;4973947;28;20050;-79
2021/12/25 05:25:33;;;;;;;0.60;0.43;;;-3.00;99.90;;;;;;4974097;28;20046;-79
2021/12/25 05:28:00;;;;;;;1.17;0.52;;;-3.00;99.90;;;;;;4975498;28;20051;-79
2021/12/25 05:30:26;;;;;;;0.50;0.50;;;-3.10;99.90;;;;;;4974067;28;20055;-79
2021/12/25 05:32:52;;;;;;;5.72;0.50;;;-3.10;99.90;;;;;;4974028;28;20039;-79
2021/12/25 05:35:17;;;;;;;0.30;0.20;;;-3.10;99.90;;;;;;4973779;28;20042;-79
2021/12/25 05:37:43;;;;;;;2.58;0.57;;;-3.20;99.90;;;;;;4957841;28;20038;-79
2021/12/25 05:40:11;;;;;;;3.80;0.80;;;-3.10;99.90;;;;;;4974063;28;20170;-79
2021/12/25 05:42:37;;;;;;;0.38;0.38;;;-3.10;99.90;;;;;;4974189;28;20073;-79
2021/12/25 05:45:03;;;;;;;0.82;0.52;;;-3.20;99.90;;;;;;4973792;28;20496;-79
2021/12/25 05:47:28;;;;;;;1.08;0.60;;;-3.20;99.90;;;;;;4957602;28;20479;-79
2021/12/25 05:49:54;;;;;;;0.20;0.20;;;-3.20;99.90;;;;;;4973942;28;20411;-79
2021/12/25 05:52:19;;;;;;;0.95;0.50;;;-3.20;99.90;;;;;;4973829;28;20038;-79
2021/12/25 05:54:45;;;;;;;5.15;0.45;;;-3.20;99.90;;;;;;4957419;28;20074;-79
2021/12/25 05:57:10;;;;;;;2.42;0.50;;;-3.20;99.90;;;;;;4989725;28;20089;-79
2021/12/25 05:59:36;;;;;;;0.95;0.57;;;-3.20;99.90;;;;;;4975080;28;20047;-79
2021/12/25 06:02:02;;;;;;;0.80;0.50;;;-3.20;99.90;;;;;;4974087;28;20407;-79
2021/12/25 06:04:27;;;;;;;1.23;0.50;;;-3.20;99.90;;;;;;4973429;28;20035;-79
2021/12/25 06:06:53;;;;;;;3.05;0.75;;;-3.20;99.90;;;;;;4957066;28;20052;-78
2021/12/25 06:09:18;;;;;;;0.57;0.50;;;-3.20;99.90;;;;;;4973306;28;20039;-78
2021/12/25 06:11:45;;;;;;;0.57;0.50;;;-3.20;99.90;;;;;;4973137;28;20058;-78
2021/12/25 06:14:18;;;;;;;1.75;0.40;;;-3.20;99.90;;;;;;4974301;28;20046;-78
2021/12/25 06:16:44;;;;;;;0.70;0.40;;;-3.30;99.90;;;;;;4973860;28;20427;-78
2021/12/25 06:19:10;;;;;;;0.80;0.47;;;-3.30;99.90;;;;;;4972782;28;20042;-78
2021/12/25 06:21:37;;;;;;;1.60;0.65;;;-3.20;99.90;;;;;;4956726;28;20062;-78
2021/12/25 06:24:05;;;;;;;0.20;0.20;;;-3.30;99.90;;;;;;4972917;28;20133;-78
2021/12/25 06:26:30;;;;;;;0.45;0.45;;;-3.30;99.90;;;;;;4972805;28;20062;-78
2021/12/25 06:28:56;;;;;;;2.83;0.28;;;-3.30;99.90;;;;;;4956915;28;20030;-78
2021/12/25 06:31:22;;;;;;;1.40;0.50;;;-3.30;99.90;;;;;;4972693;28;20050;-78
2021/12/25 06:33:48;;;;;;;0.85;0.70;;;-3.40;99.90;;;;;;4972533;28;20066;-78
2021/12/25 06:36:13;;;;;;;0.70;0.50;;;-3.40;99.90;;;;;;4972559;28;20066;-78
2021/12/25 06:38:41;;;;;;;4.35;0.57;;;-3.40;99.90;;;;;;4972315;28;20575;-78
2021/12/25 06:41:07;;;;;;;2.47;0.60;;;-3.40;99.90;;;;;;4972698;28;20055;-78
2021/12/25 06:43:34;;;;;;;0.57;0.40;;;-3.50;99.90;;;;;;4956335;28;20587;-78
2021/12/25 06:45:59;;;;;;;0.68;0.40;;;-3.50;99.90;;;;;;4972211;28;20118;-78
2021/12/25 06:48:26;;;;;;;1.45;0.50;;;-3.50;99.90;;;;;;4973458;28;20121;-78
2021/12/25 06:50:52;;;;;;;2.58;0.40;;;-3.50;99.90;;;;;;4988745;28;20047;-78
2021/12/25 06:53:17;;;;;;;0.40;0.30;;;-3.60;99.90;;;;;;4972595;28;20046;-78
2021/12/25 06:55:43;;;;;;;0.38;0.38;;;-3.60;99.90;;;;;;4956124;28;20130;-78
2021/12/25 06:58:09;;;;;;;0.50;0.30;;;-3.60;99.90;;;;;;4955959;28;20555;-78
2021/12/25 07:00:34;;;;;;;0.55;0.55;;;-3.60;99.90;;;;;;4972424;28;20125;-78
2021/12/25 07:03:00;;;;;;;2.17;0.32;;;-3.60;99.90;;;;;;4956004;28;20475;-79
2021/12/25 07:05:25;;;;;;;1.42;0.68;;;-3.60;99.90;;;;;;4972197;28;20043;-78
2021/12/25 07:07:51;;;;;;;3.30;0.40;;;-3.60;99.90;;;;;;4956248;28;20404;-78
2021/12/25 07:10:18;;;;;;;0.65;0.40;;;-3.70;99.90;;;;;;4972333;28;20043;-79
2021/12/25 07:12:46;;;;;;;0.90;0.45;;;-3.70;99.90;;;;;;4971959;28;20043;-79
2021/12/25 07:15:13;;;;;;;2.10;0.40;;;-3.70;99.90;;;;;;4971848;28;20051;-78
2021/12/25 07:17:39;;;;;;;0.20;0.20;;;-3.70;99.90;;;;;;4971804;28;20042;-78
2021/12/25 07:20:05;;;;;;;2.55;0.43;;;-3.80;99.90;;;;;;4971899;28;20050;-78
2021/12/25 07:22:30;;;;;;;2.17;0.38;;;-3.80;99.90;;;;;;4972232;28;20440;-78
2021/12/25 07:24:56;;;;;;;0.77;0.38;;;-3.80;99.90;;;;;;4955942;28;20039;-81
2021/12/25 07:27:22;;;;;;;12.55;5.25;;;-3.80;99.90;;;;;;4956194;28;20043;-81
2021/12/25 07:29:48;;;;;;;0.68;0.57;;;-3.90;99.90;;;;;;4977003;28;20039;-81
2021/12/25 07:32:13;;;;;;;3.38;0.52;;;-3.90;99.90;;;;;;4958498;28;20527;-80
2021/12/25 07:34:40;;;;;;;0.60;0.40;;;-3.90;99.90;;;;;;4959505;28;20035;-80
2021/12/25 07:37:06;;;;;;;0.65;0.28;;;-3.90;99.90;;;;;;4976165;28;20074;-80
2021/12/25 07:39:32;;;;;;;0.75;0.43;;;-3.90;99.90;;;;;;4960046;28;20050;-82
2021/12/25 07:41:58;;;;;;;0.13;0.13;;;-3.90;99.90;;;;;;4976029;28;20035;-82
2021/12/25 07:44:24;;;;;;;1.58;0.35;;;-3.90;99.90;;;;;;4956367;28;20042;-79
2021/12/25 07:46:49;;;;;;;0.55;0.35;;;-3.90;99.90;;;;;;4972814;28;20468;-79
2021/12/25 07:49:19;;;;;;;1.10;0.30;;;-4.00;99.90;;;;;;4974978;28;20074;-80
2021/12/25 07:51:45;;;;;;;1.15;0.40;;;-4.00;99.90;;;;;;4960621;28;20053;-80
2021/12/25 07:54:11;;;;;;;1.92;0.82;;;-4.00;99.90;;;;;;4973228;28;20104;-80
2021/12/25 07:56:37;;;;;;;11.20;3.90;;;-3.90;99.90;;;;;;4973531;28;20103;-80
2021/12/25 07:59:03;;;;;;;1.40;0.70;;;-3.90;99.90;;;;;;4974718;28;20078;-80
2021/12/25 08:01:31;;;;;;;3.15;0.50;;;-4.00;99.90;;;;;;4973591;28;20093;-80
2021/12/25 08:03:56;;;;;;;5.70;1.02;;;-3.90;99.90;;;;;;4958773;28;20085;-81
2021/12/25 08:06:22;;;;;;;0.60;0.60;;;-3.90;99.90;;;;;;4955871;28;20039;-80
2021/12/25 08:08:49;;;;;;;2.03;0.82;;;-3.90;99.90;;;;;;4956829;28;20046;-80
2021/12/25 08:11:15;;;;;;;1.48;0.47;;;-3.90;99.90;;;;;;4974907;28;20051;-80
2021/12/25 08:13:41;;;;;;;4.45;0.35;;;-3.90;99.90;;;;;;4977253;28;20039;-81
2021/12/25 08:16:07;;;;;;;0.60;0.30;;;-3.90;99.90;;;;;;4958248;28;20047;-83
2021/12/25 08:18:32;;;;;;;0.30;0.30;;;-3.90;99.90;;;;;;4974022;28;20046;-81
2021/12/25 08:20:59;;;;;;;1.75;0.57;;;-3.80;99.90;;;;;;4973400;28;20043;-80
2021/12/25 08:23:25;;;;;;;0.32;0.30;;;-3.80;99.90;;;;;;4973964;28;20500;-81
2021/12/25 08:25:50;;;;;;;0.88;0.30;;;-3.80;99.90;;;;;;4973887;28;20050;-81
2021/12/25 08:28:16;;;;;;;5.15;0.88;;;-3.80;99.90;;;;;;4974351;28;20047;-81
2021/12/25 08:30:42;;;;;;;1.30;0.50;;;-3.80;99.90;;;;;;4975098;28;20049;-81
2021/12/25 08:33:07;;;;;;;0.80;0.32;;;-3.80;99.90;;;;;;4976602;28;20035;-81
2021/12/25 08:35:33;;;;;;;3.10;0.40;;;-3.80;99.90;;;;;;4976869;28;20039;-81
2021/12/25 08:37:59;;;;;;;1.83;0.45;;;-3.80;99.90;;;;;;4977956;28;20101;-80
2021/12/25 08:40:26;;;;;;;0.95;0.50;;;-3.80;99.90;;;;;;4976951;28;20683;-80
2021/12/25 08:42:57;;;;;;;2.38;1.15;;;-3.80;99.90;;;;;;4973125;28;20118;-82
2021/12/25 08:48:27;;;;;;;7.40;2.53;;;-3.80;99.90;;;;;;4977276;28;20061;-79
2021/12/25 08:50:57;;;;;;;1.55;0.60;;;-3.70;99.90;;;;;;4960306;28;20407;-80
2021/12/25 08:53:25;;;;;;;0.45;0.43;;;-3.70;99.90;;;;;;4976969;28;20042;-80
2021/12/25 08:55:54;;;;;;;1.65;0.45;;;-3.70;99.90;;;;;;4977580;28;20042;-80
2021/12/25 08:58:20;;;;;;;3.10;0.30;;;-3.60;99.90;;;;;;4976499;28;20039;-80
2021/12/25 09:00:47;;;;;;;0.57;0.43;;;-3.60;99.90;;;;;;4976043;28;20495;-81
2021/12/25 09:03:12;;;;;;;1.13;0.45;;;-3.60;99.90;;;;;;4977783;28;20082;-80
2021/12/25 09:05:38;;;;;;;0.47;0.43;;;-3.60;99.90;;;;;;4978519;28;20483;-81
2021/12/25 09:08:05;;;;;;;7.35;1.00;;;-3.50;99.90;;;;;;4977558;28;20049;-81
2021/12/25 09:10:30;;;;;;;0.98;0.50;;;-3.40;99.90;;;;;;4977849;28;20082;-80
2021/12/25 09:12:57;;;;;;;1.17;0.40;;;-3.30;99.90;;;;;;4976690;28;20463;-81
2021/12/25 09:15:24;;;;;;;3.83;0.63;;;-3.20;99.90;;;;;;4976913;28;20045;-81
2021/12/25 09:17:50;;;;;;;2.60;1.02;;;-3.10;99.90;;;;;;4977070;28;20034;-80
2021/12/25 09:20:17;;;;;;;3.90;0.65;;;-2.90;99.90;;;;;;4977588;28;20069;-79
2021/12/25 09:22:43;;;;;;;1.02;0.63;;;-2.70;99.90;;;;;;4959879;28;20061;-79
2021/12/25 09:25:09;;;;;;;0.25;0.20;;;-2.50;99.90;;;;;;4977166;28;20081;-80
2021/12/25 09:27:34;;;;;;;0.68;0.30;;;-2.30;99.90;;;;;;4979743;28;20047;-80
2021/12/25 09:30:01;;;;;;;1.65;0.50;;;-2.20;99.90;;;;;;4977159;28;20039;-79
2021/12/25 09:32:26;;;;;;;0.60;0.50;;;-2.00;99.90;;;;;;4960678;28;20117;-79
2021/12/25 09:34:52;;;;;;;4.75;0.50;;;-1.90;99.90;;;;;;4978764;28;20086;-80
2021/12/25 09:37:18;;;;;;;0.15;0.15;;;-2.00;99.90;;;;;;4979317;28;20038;-80
2021/12/25 09:39:45;;;;;;;5.97;0.63;;;-1.90;99.90;;;;;;4978575;28;20039;-80
2021/12/25 09:42:10;;;;;;;0.95;0.60;;;-1.80;99.90;;;;;;4978851;28;20034;-80
2021/12/25 09:44:36;;;;;;;1.42;0.45;;;-1.90;99.90;;;;;;4977647;28;20092;-80
2021/12/25 09:47:02;;;;;;;2.22;0.63;;;-1.90;99.90;;;;;;4961050;28;20109;-81
2021/12/25 09:49:28;;;;;;;2.20;0.50;;;-2.00;99.90;;;;;;4975940;28;20093;-81
2021/12/25 09:51:53;;;;;;;2.25;0.68;;;-1.90;99.90;;;;;;4977056;28;20023;-81
2021/12/25 09:54:19;;;;;;;0.38;0.38;;;-1.80;99.90;;;;;;4975965;28;20043;-81
2021/12/25 09:56:47;;;;;;;4.13;0.60;;;-1.80;99.90;;;;;;4959600;28;20049;-81
2021/12/25 09:59:13;;;;;;;2.17;0.45;;;-2.00;99.90;;;;;;4959450;28;20053;-78
2021/12/25 10:01:40;;;;;;;1.55;0.57;;;-2.10;99.90;;;;;;4976781;28;20038;-81
2021/12/25 10:04:09;;;;;;;1.95;0.50;;;-2.30;99.90;;;;;;4976936;28;20031;-81
2021/12/25 10:06:37;;;;;;;0.35;0.35;;;-2.40;99.90;;;;;;4979344;28;20235;-80
2021/12/25 10:09:24;;;;;;;2.95;0.73;;;-2.30;99.90;;;;;;4964653;28;20400;-80
2021/12/25 10:12:12;;;;;;;6.97;3.65;;;-2.40;99.90;;;;;;4963787;28;20126;-80
2021/12/25 10:14:40;;;;;;;1.95;0.80;;;-2.40;99.90;;;;;;4980263;28;20058;-80
2021/12/25 10:17:16;;;;;;;0.80;0.40;;;-2.40;99.90;;;;;;4980979;28;20038;-80
2021/12/25 10:19:42;;;;;;;0.93;0.65;;;-2.30;99.90;;;;;;4979887;28;20053;-80
2021/12/25 10:22:10;;;;;;;2.03;0.50;;;-2.40;99.90;;;;;;4963168;28;20110;-80
2021/12/25 10:24:47;;;;;;;1.48;0.63;;;-2.40;99.90;;;;;;4979472;28;20460;-80
2021/12/25 10:27:16;;;;;;;0.20;0.20;;;-2.30;99.90;;;;;;4979601;28;20507;-80
2021/12/25 10:29:42;;;;;;;0.38;0.30;;;-2.30;99.90;;;;;;4980831;28;20047;-80
2021/12/25 10:32:18;;;;;;;4.15;0.57;;;-2.30;99.90;;;;;;4981176;28;20486;-80
2021/12/25 10:34:44;;;;;;;0.75;0.30;;;-2.30;99.90;;;;;;4978742;28;20170;-80
2021/12/25 10:37:13;;;;;;;2.38;0.50;;;-2.30;99.90;;;;;;4978822;28;20035;-80
2021/12/25 10:39:40;;;;;;;1.20;1.10;;;-2.20;99.90;;;;;;4977827;28;20415;-80
2021/12/25 10:42:13;;;;;;;5.03;1.00;;;-2.20;99.90;;;;;;4980276;28;20411;-80
2021/12/25 10:44:41;;;;;;;1.35;0.50;;;-2.20;99.90;;;;;;4979672;28;20043;-80
2021/12/25 10:47:10;;;;;;;5.00;0.75;;;-2.20;99.90;;;;;;4977440;28;20089;-79
2021/12/25 10:49:41;;;;;;;4.07;1.10;;;-2.10;99.90;;;;;;4979138;28;20042;-80
2021/12/25 10:52:27;;;;;;;0.43;0.38;;;-2.10;99.90;;;;;;4981393;28;20066;-79
2021/12/25 10:54:58;;;;;;;1.80;0.30;;;-2.10;99.90;;;;;;4979943;28;20410;-79
2021/12/25 10:57:35;;;;;;;1.20;0.53;;;-2.10;99.90;;;;;;4979059;28;20066;-79
2021/12/25 11:00:07;;;;;;;1.58;0.57;;;-2.00;99.90;;;;;;4979825;28;20047;-80
2021/12/25 11:02:38;;;;;;;;;;;-2.00;99.90;;;;;;4982008;28;20068;-79
2021/12/25 11:05:30;;;;;;;1.05;0.70;;;-2.00;99.90;;;;;;4981452;28;19922;-80
2021/12/25 11:08:12;;;;;;;3.35;0.70;;;-1.90;99.90;;;;;;4964200;28;20100;-79
2021/12/25 11:10:51;;;;;;;1.45;0.60;;;-1.90;99.90;;;;;;4980250;28;20054;-80
2021/12/25 11:13:18;;;;;;;2.13;0.60;;;-1.90;99.90;;;;;;4982186;28;20039;-80
2021/12/25 11:15:44;;;;;;;1.23;0.65;;;-1.90;99.90;;;;;;4983081;28;20042;-80
2021/12/25 11:18:10;;;;;;;2.20;0.60;;;-1.90;99.90;;;;;;4981851;28;20049;-80
2021/12/25 11:20:39;;;;;;;8.20;0.80;;;-1.80;99.90;;;;;;4982394;28;20106;-79
2021/12/25 11:23:07;;;;;;;3.05;0.75;;;-1.80;99.90;;;;;;4981348;28;20038;-80
2021/12/25 11:25:35;;;;;;;0.50;0.43;;;-1.80;99.90;;;;;;4981322;28;20070;-79
2021/12/25 11:28:03;;;;;;;0.77;0.57;;;-1.80;99.90;;;;;;4983491;28;20066;-80
2021/12/25 11:30:31;;;;;;;1.08;0.63;;;-1.70;99.90;;;;;;4984716;28;20046;-79
2021/12/25 11:32:57;;;;;;;0.43;0.40;;;-1.70;99.90;;;;;;4983133;28;20121;-79
2021/12/25 11:35:23;;;;;;;4.50;0.65;;;-1.70;99.90;;;;;;4967671;28;20097;-79
2021/12/25 11:37:51;;;;;;;3.20;0.40;;;-1.60;99.90;;;;;;5000265;28;20043;-79
2021/12/25 11:40:19;;;;;;;0.70;0.50;;;-1.60;99.50;;;;;;4978825;28;20055;-80
2021/12/25 11:42:48;;;;;;;6.57;2.95;;;-1.60;99.90;;;;;;4976114;28;20063;-80
2021/12/25 11:45:21;;;;;;;2.95;1.25;;;-1.50;99.90;;;;;;4940557;29;20106;-80
2021/12/25 11:47:52;;;;;;;1.17;0.60;;;-1.50;99.90;;;;;;4956489;28;20090;-80
2021/12/25 11:50:20;;;;;;;3.67;0.57;;;-1.50;99.90;;;;;;4956154;28;20105;-80
2021/12/25 11:53:19;;;;;;;1.35;0.60;;;-1.40;99.90;;;;;;4957530;29;20051;-80
2021/12/25 11:56:04;;;;;;;0.80;0.60;;;-1.50;99.90;;;;;;4956844;29;20451;-80
2021/12/25 11:58:38;;;;;;;3.67;0.80;;;-1.40;99.90;;;;;;4956896;28;20103;-81
2021/12/25 12:01:15;;;;;;;0.88;0.50;;;-1.40;99.90;;;;;;4959168;28;20125;-81
2021/12/25 12:03:44;;;;;;;1.83;0.38;;;-1.40;99.90;;;;;;4959716;28;20047;-81
2021/12/25 12:06:12;;;;;;;4.32;0.60;;;-1.40;99.90;;;;;;4976781;28;20165;-81
2021/12/25 12:08:53;;;;;;;0.75;0.35;;;-1.40;99.80;;;;;;4975742;28;20142;-81
2021/12/25 12:11:28;;;;;;;2.45;0.70;;;-1.30;98.90;;;;;;4976669;28;20232;-81
2021/12/25 12:14:17;;;;;;;2.03;0.52;;;-1.30;98.90;;;;;;4976432;28;20058;-81
2021/12/25 12:16:50;;;;;;;5.18;0.60;;;-1.40;94.80;;;;;;4976287;28;20107;-80
2021/12/25 12:19:38;;;;;;;0.85;0.45;;;-1.30;99.90;;;;;;4978092;28;20396;-81
2021/12/25 12:22:15;;;;;;;1.67;0.57;;;-1.30;99.90;;;;;;4981219;28;20034;-81
2021/12/25 12:24:50;;;;;;;1.25;0.95;;;-1.30;99.20;;;;;;4980677;28;20380;-81
2021/12/25 12:27:40;;;;;;;4.97;1.13;;;-1.30;99.90;;;;;;4980275;28;20054;-81
2021/12/25 12:30:11;;;;;;;0.60;0.30;;;-1.20;98.90;;;;;;4980518;28;20524;-81
2021/12/25 12:32:43;;;;;;;0.50;0.40;;;-1.20;99.90;;;;;;4963753;28;20381;-81
2021/12/25 12:35:30;;;;;;;1.50;0.73;;;-1.20;99.90;;;;;;4980152;28;20606;-81
2021/12/25 12:38:40;;;;;;;5.32;0.75;;;-1.20;97.40;;;;;;4980225;28;20051;-80
2021/12/25 12:41:31;;;;;;;1.80;0.50;;;-1.20;96.50;;;;;;4977521;28;20054;-81
2021/12/25 12:44:00;;;;;;;1.67;0.73;;;-1.10;95.60;;;;;;4972227;28;20066;-81
2021/12/25 12:46:53;;;;;;;3.35;0.73;;;-1.00;96.80;;;;;;4977226;28;20291;-80
2021/12/25 12:49:23;;;;;;;;;;;-1.10;97.00;;;;;;4975490;28;20067;-80
2021/12/25 12:52:09;;;;;;;0.52;0.32;;;-1.10;92.90;;;;;;4961508;28;19981;-81
2021/12/25 12:54:50;;;;;;;3.55;0.55;;;-1.10;98.30;;;;;;4961286;28;20047;-81
2021/12/25 12:57:20;;;;;;;0.30;0.25;;;-1.00;98.80;;;;;;4960253;28;20047;-81
2021/12/25 13:00:09;;;;;;;0.93;0.57;;;-1.10;97.10;;;;;;4974377;28;20262;-80
2021/12/25 13:02:54;;;;;;;0.70;0.50;;;-1.10;97.90;;;;;;4987148;28;20047;-80
2021/12/25 13:05:24;;;;;;;2.88;0.52;;;-1.10;99.10;;;;;;4971706;29;20050;-80
2021/12/25 13:07:53;;;;;;;1.52;0.63;;;-1.00;99.90;;;;;;4959514;28;20049;-81
2021/12/25 13:13:14;;;;;;;0.88;0.70;;;-1.00;99.90;;;;;;4972745;28;20141;-80
2021/12/25 13:15:42;;;;;;;0.75;0.50;;;-1.00;97.10;;;;;;4994035;28;20058;-80
2021/12/25 13:18:08;;;;;;;2.70;0.52;;;-1.00;99.90;;;;;;4996027;28;20053;-80
2021/12/25 13:20:41;;;;;;;0.98;0.40;;;-1.00;99.90;;;;;;4987506;28;20079;-81
2021/12/25 13:23:12;;;;;;;0.75;0.57;;;-1.00;99.90;;;;;;4978261;28;20505;-79
2021/12/25 13:25:45;;;;;;;2.97;0.70;;;-1.00;99.90;;;;;;4975998;28;20038;-81
2021/12/25 13:28:11;;;;;;;0.77;0.50;;;-1.10;99.70;;;;;;4977987;28;20137;-80
2021/12/25 13:30:42;;;;;;;2.25;0.60;;;-1.10;99.90;;;;;;4978749;28;20077;-80
2021/12/25 13:33:13;;;;;;;6.15;0.90;;;-1.10;99.30;;;;;;4961296;28;20122;-80
2021/12/25 13:35:40;;;;;;;2.08;0.73;;;-1.10;97.60;;;;;;4976637;28;20054;-80
2021/12/25 13:38:07;;;;;;;0.90;0.70;;;-1.10;99.80;;;;;;4976459;28;20503;-81
2021/12/25 13:40:33;;;;;;;2.38;2.00;;;-1.10;99.90;;;;;;4976081;28;20407;-80
2021/12/25 13:43:10;;;;;;;1.20;0.82;;;-1.10;99.90;;;;;;4976080;28;20050;-80
2021/12/25 13:45:37;;;;;;;2.67;0.85;;;-1.00;99.90;;;;;;4975967;28;20151;-81
2021/12/25 13:48:04;;;;;;;1.27;0.90;;;-1.10;99.90;;;;;;4974876;28;20038;-81
2021/12/25 13:50:30;;;;;;;21.35;7.72;;;-1.10;99.80;;;;;;4974232;28;20050;-82
2021/12/25 13:52:59;;;;;;;0.93;0.50;;;-1.20;99.90;;;;;;4973607;28;20050;-82
2021/12/25 13:55:28;;;;;;;2.85;0.70;;;-1.20;99.90;;;;;;4973442;28;20235;-82
2021/12/25 13:57:59;;;;;;;3.85;0.55;;;-1.20;97.60;;;;;;4973034;28;20031;-81
2021/12/25 14:00:39;;;;;;;2.60;0.80;;;-1.20;99.90;;;;;;4974079;28;20047;-82
2021/12/25 14:03:08;;;;;;;3.35;1.27;;;-1.20;99.90;;;;;;4973997;28;20446;-82
2021/12/25 14:05:37;;;;;;;17.20;8.55;;;-1.20;99.90;;;;;;4973585;28;20049;-82
2021/12/25 14:08:03;;;;;;;12.48;4.47;;;-1.30;99.90;;;;;;4974477;28;20042;-82
2021/12/25 14:10:32;;;;;;;1.45;0.95;;;-1.30;99.90;;;;;;4974007;28;20125;-82
2021/12/25 14:13:00;;;;;;;4.32;2.35;;;-1.40;99.90;;;;;;4974182;28;20043;-81
2021/12/25 14:15:33;;;;;;;1.80;0.60;;;-1.40;99.90;;;;;;4974046;28;20038;-81
2021/12/25 14:18:03;;;;;;;5.32;1.90;;;-1.40;99.90;;;;;;4973070;28;20043;-75
2021/12/25 14:20:31;;;;;;;0.40;0.40;;;-1.50;99.90;;;;;;4974253;28;20093;-75